createdAt,value
2019-01-21T00:00:59.711Z,97170.67
2019-01-21T00:02:37.978Z,97174.08
2019-01-21T00:04:13.350Z,97169.63
2019-01-21T00:05:50.056Z,97173.46
2019-01-21T00:07:28.043Z,97175.11
2019-01-21T00:09:04.770Z,97174.41
2019-01-21T00:10:40.458Z,97182.05
2019-01-21T00:12:19.447Z,97177.37
2019-01-21T00:13:56.034Z,97174.17
2019-01-21T00:15:31.288Z,97176.12
2019-01-21T00:17:06.622Z,97178.53
2019-01-21T00:18:42.295Z,97179.78
2019-01-21T00:20:17.896Z,97177.61
2019-01-21T00:21:57.093Z,97178.78
2019-01-21T00:23:32.948Z,97181.59
2019-01-21T00:25:08.395Z,97180.50
2019-01-21T00:26:45.499Z,97184.86
2019-01-21T00:28:20.820Z,97183.63
2019-01-21T00:29:59.930Z,97182.76
2019-01-21T00:31:35.161Z,97184.56
2019-01-21T00:33:15.704Z,97181.59
2019-01-21T00:34:51.153Z,97180.11
2019-01-21T00:36:26.928Z,97177.37
2019-01-21T00:38:02.733Z,97181.83
2019-01-21T00:39:39.712Z,97174.50
2019-01-21T00:41:15.554Z,97174.56
2019-01-21T00:42:53.684Z,97173.72
2019-01-21T00:44:29.413Z,97169.27
2019-01-21T00:46:04.733Z,97167.73
2019-01-21T00:47:41.824Z,97166.86
2019-01-21T00:49:17.394Z,97167.18
2019-01-21T00:50:52.837Z,97166.77
2019-01-21T00:52:28.563Z,97165.15
2019-01-21T00:54:06.016Z,97165.45
2019-01-21T00:55:43.566Z,97165.38
2019-01-21T00:57:22.045Z,97166.47
2019-01-21T00:58:57.573Z,97169.43
2019-01-21T01:00:34.549Z,97165.85
2019-01-21T01:02:09.927Z,97167.31
2019-01-21T01:03:47.390Z,97170.36
2019-01-21T01:05:23.070Z,97175.03
2019-01-21T01:06:58.805Z,97173.63
2019-01-21T01:08:34.739Z,97168.86
2019-01-21T01:10:11.596Z,97177.12
2019-01-21T01:11:47.021Z,97180.56
2019-01-21T01:13:23.726Z,97176.73
2019-01-21T01:15:05.840Z,97181.36
2019-01-21T01:16:43.405Z,97180.34
2019-01-21T01:18:18.722Z,97178.38
2019-01-21T01:19:57.622Z,97182.20
2019-01-21T01:21:35.301Z,97181.89
2019-01-21T01:23:11.067Z,97189.61
2019-01-21T01:24:47.208Z,97191.42
2019-01-21T01:26:22.784Z,97190.95
2019-01-21T01:27:59.405Z,97186.83
2019-01-21T01:29:34.977Z,97190.41
2019-01-21T01:31:10.638Z,97192.58
2019-01-21T01:32:46.397Z,97185.25
2019-01-21T01:34:21.727Z,97191.88
2019-01-21T01:35:57.020Z,97191.88
2019-01-21T01:37:33.482Z,97188.05
2019-01-21T01:39:10.564Z,97191.34
2019-01-21T01:40:46.565Z,97193.20
2019-01-21T01:42:22.821Z,97197.55
2019-01-21T01:43:59.299Z,97202.31
2019-01-21T01:45:35.250Z,97201.46
2019-01-21T01:47:10.769Z,97200.69
2019-01-21T01:48:47.713Z,97207.98
2019-01-21T01:50:23.561Z,97201.70
2019-01-21T01:51:59.073Z,97204.59
2019-01-21T01:53:34.680Z,97205.06
2019-01-21T01:55:10.821Z,97203.19
2019-01-21T01:56:46.201Z,97202.70
2019-01-21T01:58:23.478Z,97206.45
2019-01-21T02:00:06.781Z,97205.91
2019-01-21T02:01:42.358Z,97205.76
2019-01-21T02:03:20.488Z,97211.75
2019-01-21T02:04:56.627Z,97209.03
2019-01-21T02:06:32.286Z,97209.64
2019-01-21T02:08:10.906Z,97211.44
2019-01-21T02:09:46.346Z,97207.77
2019-01-21T02:11:21.856Z,97209.50
2019-01-21T02:12:57.261Z,97204.28
2019-01-21T02:14:32.461Z,97200.84
2019-01-21T02:16:07.727Z,97201.62
2019-01-21T02:17:52.031Z,97200.84
2019-01-21T02:19:26.133Z,97205.77
2019-01-21T02:21:02.175Z,97204.75
2019-01-21T02:22:37.705Z,97198.73
2019-01-21T02:24:14.497Z,97204.66
2019-01-21T02:26:02.653Z,97206.36
2019-01-21T02:28:20.358Z,97201.91
2019-01-21T02:30:35.120Z,97203.41
2019-01-21T02:33:06.393Z,97200.69
2019-01-21T02:35:06.858Z,97200.98
2019-01-21T02:37:35.552Z,97205.81
2019-01-21T02:39:34.828Z,97200.75
2019-01-21T02:41:34.900Z,97206.39
2019-01-21T02:43:50.637Z,97200.75
2019-01-21T02:45:58.240Z,97206.22
2019-01-21T02:47:42.290Z,97199.29
2019-01-21T02:49:46.567Z,97204.42
2019-01-21T02:52:02.735Z,97203.41
2019-01-21T02:53:50.662Z,97205.67
2019-01-21T02:55:43.784Z,97212.91
2019-01-21T02:57:48.450Z,97210.70
2019-01-21T03:00:07.343Z,97209.72
2019-01-21T03:02:22.716Z,97210.94
2019-01-21T03:04:41.061Z,97212.26
2019-01-21T03:06:47.595Z,97214.02
2019-01-21T03:09:05.163Z,97227.11
2019-01-21T03:11:28.375Z,97217.99
2019-01-21T03:13:25.367Z,97219.54
2019-01-21T03:15:40.101Z,97219.84
2019-01-21T03:18:07.885Z,97217.84
2019-01-21T03:20:09.485Z,97216.19
2019-01-21T03:22:15.493Z,97216.70
2019-01-21T03:24:30.609Z,97211.55
2019-01-21T03:26:39.032Z,97209.61
2019-01-21T03:28:46.482Z,97206.72
2019-01-21T03:31:03.050Z,97205.39
2019-01-21T03:33:26.791Z,97202.88
2019-01-21T03:35:24.285Z,97205.59
2019-01-21T03:37:30.411Z,97205.05
2019-01-21T03:39:34.361Z,97210.52
2019-01-21T03:41:21.115Z,97208.59
2019-01-21T03:43:25.745Z,97204.84
2019-01-21T03:45:50.865Z,97213.05
2019-01-21T03:47:48.697Z,97213.63
2019-01-21T03:49:34.182Z,97214.75
2019-01-21T03:51:49.157Z,97218.50
2019-01-21T03:53:56.454Z,97215.22
2019-01-21T03:55:34.896Z,97218.37
2019-01-21T03:57:31.840Z,97221.27
2019-01-21T03:59:56.254Z,97226.09
2019-01-21T04:02:14.573Z,97226.02
2019-01-21T04:04:24.147Z,97228.27
2019-01-21T04:06:22.587Z,97226.16
2019-01-21T04:08:26.628Z,97227.22
2019-01-21T04:10:28.553Z,97226.11
2019-01-21T04:12:40.654Z,97229.69
2019-01-21T04:14:48.521Z,97225.00
2019-01-21T04:16:51.042Z,97228.82
2019-01-21T04:19:02.758Z,97230.28
2019-01-21T04:21:37.168Z,97233.84
2019-01-21T04:24:04.614Z,97222.14
2019-01-21T04:26:13.320Z,97226.53
2019-01-21T04:28:05.989Z,97220.25
2019-01-21T04:30:26.880Z,97220.73
2019-01-21T04:32:11.564Z,97218.59
2019-01-21T04:34:21.474Z,97214.08
2019-01-21T04:36:25.204Z,97215.28
2019-01-21T04:38:42.391Z,97216.27
2019-01-21T04:40:42.750Z,97220.99
2019-01-21T04:42:43.524Z,97214.71
2019-01-21T04:45:05.697Z,97205.73
2019-01-21T04:47:14.804Z,97209.03
2019-01-21T04:49:45.764Z,97209.48
2019-01-21T04:51:40.698Z,97206.42
2019-01-21T04:53:48.605Z,97208.40
2019-01-21T04:55:51.726Z,97207.05
2019-01-21T04:58:05.591Z,97200.20
2019-01-21T05:00:42.896Z,97203.30
2019-01-21T05:03:00.393Z,97198.21
2019-01-21T05:05:03.318Z,97201.70
2019-01-21T05:07:05.219Z,97195.87
2019-01-21T05:09:18.063Z,97196.32
2019-01-21T05:11:48.582Z,97197.25
2019-01-21T05:13:56.394Z,97203.28
2019-01-21T05:16:03.894Z,97202.89
2019-01-21T05:18:16.428Z,97204.52
2019-01-21T05:20:22.602Z,97210.84
2019-01-21T05:22:49.658Z,97201.40
2019-01-21T05:25:09.135Z,97206.13
2019-01-21T05:27:31.517Z,97213.99
2019-01-21T05:30:04.718Z,97211.35
2019-01-21T05:32:28.744Z,97209.88
2019-01-21T05:34:34.661Z,97211.86
2019-01-21T05:37:02.845Z,97211.47
2019-01-21T05:39:23.337Z,97208.52
2019-01-21T05:41:44.236Z,97208.58
2019-01-21T05:43:51.415Z,97208.52
2019-01-21T05:46:02.896Z,97210.39
2019-01-21T05:48:01.645Z,97210.98
2019-01-21T05:50:23.885Z,97215.41
2019-01-21T05:52:58.089Z,97208.34
2019-01-21T05:55:16.022Z,97211.17
2019-01-21T05:57:31.455Z,97207.71
2019-01-21T05:59:52.220Z,97210.23
2019-01-21T06:02:14.707Z,97217.72
2019-01-21T06:04:27.725Z,97214.62
2019-01-21T06:06:53.488Z,97212.88
2019-01-21T06:08:58.028Z,97214.98
2019-01-21T06:11:03.181Z,97215.38
2019-01-21T06:13:24.990Z,97217.09
2019-01-21T06:15:46.447Z,97213.00
2019-01-21T06:18:01.830Z,97218.41
2019-01-21T06:20:22.974Z,97215.20
2019-01-21T06:22:41.146Z,97217.88
2019-01-21T06:24:50.253Z,97214.66
2019-01-21T06:27:23.923Z,97224.38
2019-01-21T06:29:57.963Z,97228.18
2019-01-21T06:32:16.507Z,97222.14
2019-01-21T06:34:22.073Z,97221.72
2019-01-21T06:36:27.662Z,97224.13
2019-01-21T06:38:38.499Z,97222.39
2019-01-21T06:41:08.444Z,97223.22
2019-01-21T06:43:04.043Z,97213.89
2019-01-21T06:45:09.085Z,97221.39
2019-01-21T06:47:29.682Z,97219.41
2019-01-21T06:49:48.092Z,97213.59
2019-01-21T06:51:37.005Z,97222.19
2019-01-21T06:53:51.597Z,97229.88
2019-01-21T06:55:51.360Z,97231.51
2019-01-21T06:57:53.342Z,97232.19
2019-01-21T07:00:07.110Z,97227.30
2019-01-21T07:04:37.765Z,97239.50
2019-01-21T07:06:53.145Z,97241.63
2019-01-21T07:08:47.009Z,97240.89
2019-01-21T07:10:43.813Z,97247.08
2019-01-21T07:13:01.831Z,97245.08
2019-01-21T07:15:16.081Z,97254.12
2019-01-21T07:17:42.920Z,97252.37
2019-01-21T07:19:32.106Z,97253.45
2019-01-21T07:22:00.140Z,97256.69
2019-01-21T07:24:04.819Z,97256.82
2019-01-21T07:26:31.711Z,97256.23
2019-01-21T07:28:54.463Z,97253.58
2019-01-21T07:31:31.074Z,97253.63
2019-01-21T07:33:44.889Z,97259.16
2019-01-21T07:35:50.119Z,97249.02
2019-01-21T07:37:56.567Z,97250.39
2019-01-21T07:40:24.880Z,97252.91
2019-01-21T07:42:26.200Z,97263.08
2019-01-21T07:44:57.482Z,97256.52
2019-01-21T07:47:12.197Z,97253.12
2019-01-21T07:49:05.350Z,97260.96
2019-01-21T07:51:28.372Z,97258.31
2019-01-21T07:53:30.018Z,97254.15
2019-01-21T07:55:55.316Z,97261.77
2019-01-21T07:58:08.390Z,97258.31
2019-01-21T08:00:33.822Z,97269.02
2019-01-21T08:03:01.771Z,97270.73
2019-01-21T08:05:17.687Z,97264.33
2019-01-21T08:07:35.218Z,97263.64
2019-01-21T08:09:35.660Z,97266.25
2019-01-21T08:12:11.838Z,97260.76
2019-01-21T08:14:18.697Z,97260.45
2019-01-21T08:16:47.379Z,97258.98
2019-01-21T08:18:59.596Z,97258.92
2019-01-21T08:21:07.724Z,97263.14
2019-01-21T08:23:30.410Z,97267.05
2019-01-21T08:25:47.188Z,97261.02
2019-01-21T08:27:36.998Z,97264.86
2019-01-21T08:29:52.690Z,97267.81
2019-01-21T08:31:42.096Z,97267.67
2019-01-21T08:33:26.390Z,97267.77
2019-01-21T08:35:43.990Z,97267.05
2019-01-21T08:37:45.780Z,97264.56
2019-01-21T08:39:57.037Z,97261.73
2019-01-21T08:41:55.991Z,97265.42
2019-01-21T08:44:03.450Z,97263.47
2019-01-21T08:46:10.234Z,97263.13
2019-01-21T08:48:23.507Z,97267.72
2019-01-21T08:50:30.371Z,97268.49
2019-01-21T08:52:58.493Z,97261.78
2019-01-21T08:55:09.746Z,97259.46
2019-01-21T08:57:38.192Z,97257.87
2019-01-21T08:59:43.122Z,97260.64
2019-01-21T09:01:58.088Z,97262.91
2019-01-21T09:03:58.276Z,97259.67
2019-01-21T09:05:58.897Z,97256.37
2019-01-21T09:08:11.270Z,97257.77
2019-01-21T09:10:28.734Z,97264.02
2019-01-21T09:12:34.769Z,97269.63
2019-01-21T09:14:34.197Z,97272.80
2019-01-21T09:17:09.066Z,97273.89
2019-01-21T09:19:16.578Z,97266.63
2019-01-21T09:21:37.648Z,97276.71
2019-01-21T09:23:29.322Z,97277.41
2019-01-21T09:25:53.586Z,97273.69
2019-01-21T09:28:28.212Z,97276.37
2019-01-21T09:30:39.178Z,97280.72
2019-01-21T09:32:55.687Z,97282.75
2019-01-21T09:35:12.035Z,97284.12
2019-01-21T09:37:23.765Z,97287.68
2019-01-21T09:39:54.926Z,97296.25
2019-01-21T09:42:16.545Z,97294.38
2019-01-21T09:44:21.324Z,97300.20
2019-01-21T09:46:25.835Z,97299.69
2019-01-21T09:47:59.590Z,97301.39
2019-01-21T09:49:33.916Z,97293.42
2019-01-21T09:51:09.706Z,97290.98
2019-01-21T09:52:45.171Z,97289.65
2019-01-21T09:54:27.404Z,97280.86
2019-01-21T09:56:02.745Z,97283.44
2019-01-21T09:57:42.853Z,97277.91
2019-01-21T09:59:17.807Z,97277.02
2019-01-21T10:01:07.755Z,97279.23
2019-01-21T10:02:56.281Z,97276.69
2019-01-21T10:04:41.367Z,97272.78
2019-01-21T10:06:17.072Z,97275.02
2019-01-21T10:08:25.593Z,97275.80
2019-01-21T10:10:30.491Z,97276.00
2019-01-21T10:12:33.866Z,97286.79
2019-01-21T10:14:53.454Z,97285.68
2019-01-21T10:17:08.197Z,97286.47
2019-01-21T10:19:11.246Z,97277.89
2019-01-21T10:21:10.223Z,97279.89
2019-01-21T10:23:05.918Z,97271.86
2019-01-21T10:25:17.410Z,97263.52
2019-01-21T10:27:39.807Z,97257.96
2019-01-21T10:29:27.354Z,97261.62
2019-01-21T10:31:34.788Z,97255.27
2019-01-21T10:33:49.679Z,97256.04
2019-01-21T10:36:06.443Z,97255.04
2019-01-21T10:38:20.313Z,97255.70
2019-01-21T10:40:19.782Z,97257.67
2019-01-21T10:42:28.883Z,97260.23
2019-01-21T10:44:34.820Z,97259.97
2019-01-21T10:47:18.104Z,97254.14
2019-01-21T10:49:37.529Z,97256.91
2019-01-21T10:52:01.887Z,97259.64
2019-01-21T10:54:01.890Z,97255.64
2019-01-21T10:56:23.095Z,97253.30
2019-01-21T10:58:38.313Z,97250.19
2019-01-21T11:01:09.845Z,97250.02
2019-01-21T11:03:16.641Z,97253.34
2019-01-21T11:05:45.535Z,97246.78
2019-01-21T11:08:02.226Z,97247.44
2019-01-21T11:10:35.197Z,97240.50
2019-01-21T11:12:28.762Z,97239.61
2019-01-21T11:15:02.602Z,97232.19
2019-01-21T11:16:57.325Z,97226.67
2019-01-21T11:19:13.207Z,97224.31
2019-01-21T11:21:17.806Z,97217.08
2019-01-21T11:23:33.861Z,97207.76
2019-01-21T11:26:19.634Z,97204.53
2019-01-21T11:28:43.423Z,97193.09
2019-01-21T11:30:44.474Z,97193.77
2019-01-21T11:33:15.421Z,97190.32
2019-01-21T11:35:28.377Z,97184.41
2019-01-21T11:37:43.757Z,97178.97
2019-01-21T11:40:04.743Z,97182.48
2019-01-21T11:42:04.746Z,97175.38
2019-01-21T11:44:31.975Z,97176.95
2019-01-21T11:47:11.408Z,97173.50
2019-01-21T11:49:21.196Z,97178.51
2019-01-21T11:51:40.472Z,97188.44
2019-01-21T11:53:40.953Z,97182.30
2019-01-21T11:55:35.174Z,97166.27
2019-01-21T11:57:26.195Z,97161.56
2019-01-21T11:59:44.613Z,97167.14
2019-01-21T12:01:53.938Z,97165.53
2019-01-21T12:03:54.682Z,97166.36
2019-01-21T12:06:00.250Z,97162.00
2019-01-21T12:08:08.461Z,97165.11
2019-01-21T12:10:15.388Z,97156.68
2019-01-21T12:12:08.812Z,97146.36
2019-01-21T12:14:13.304Z,97158.05
2019-01-21T12:16:41.679Z,97144.10
2019-01-21T12:18:53.483Z,97152.33
2019-01-21T12:20:58.696Z,97141.28
2019-01-21T12:23:04.274Z,97139.50
2019-01-21T12:25:00.214Z,97139.25
2019-01-21T12:27:16.606Z,97134.45
2019-01-21T12:29:44.030Z,97132.08
2019-01-21T12:31:38.405Z,97131.71
2019-01-21T12:34:22.154Z,97122.39
2019-01-21T12:36:17.764Z,97118.16
2019-01-21T12:38:25.344Z,97111.84
2019-01-21T12:40:49.890Z,97117.47
2019-01-21T12:43:10.376Z,97109.48
2019-01-21T12:45:38.235Z,97106.38
2019-01-21T12:47:37.671Z,97099.39
2019-01-21T12:49:38.060Z,97101.99
2019-01-21T12:51:39.461Z,97096.48
2019-01-21T12:54:11.063Z,97095.02
2019-01-21T12:56:13.530Z,97088.28
2019-01-21T12:58:21.308Z,97090.28
2019-01-21T13:00:28.967Z,97081.87
2019-01-21T13:02:32.447Z,97079.14
2019-01-21T13:04:45.563Z,97076.88
2019-01-21T13:06:42.589Z,97069.89
2019-01-21T13:09:09.414Z,97065.63
2019-01-21T13:11:15.098Z,97067.47
2019-01-21T13:13:33.930Z,97077.34
2019-01-21T13:15:51.825Z,97080.55
2019-01-21T13:18:19.859Z,97078.52
2019-01-21T13:20:21.242Z,97082.54
2019-01-21T13:22:41.089Z,97081.37
2019-01-21T13:24:32.117Z,97077.35
2019-01-21T13:26:49.244Z,97079.57
2019-01-21T13:29:04.604Z,97080.55
2019-01-21T13:31:17.094Z,97071.53
2019-01-21T13:33:19.363Z,97066.63
2019-01-21T13:35:40.011Z,97067.51
2019-01-21T13:37:58.975Z,97063.28
2019-01-21T13:40:01.593Z,97059.25
2019-01-21T13:42:45.003Z,97056.08
2019-01-21T13:45:13.745Z,97050.50
2019-01-21T13:47:33.472Z,97053.61
2019-01-21T13:49:36.524Z,97042.40
2019-01-21T13:52:09.801Z,97043.95
2019-01-21T13:54:55.792Z,97039.30
2019-01-21T13:57:09.970Z,97043.11
2019-01-21T13:59:32.998Z,97051.00
2019-01-21T14:01:49.417Z,97047.34
2019-01-21T14:04:29.779Z,97044.30
2019-01-21T14:06:52.623Z,97042.19
2019-01-21T14:08:59.278Z,97046.06
2019-01-21T14:11:16.541Z,97049.52
2019-01-21T14:13:34.794Z,97039.57
2019-01-21T14:15:53.916Z,97039.36
2019-01-21T14:18:14.252Z,97035.91
2019-01-21T14:20:31.008Z,97035.48
2019-01-21T14:22:47.173Z,97032.03
2019-01-21T14:25:11.160Z,97039.66
2019-01-21T14:27:33.476Z,97034.71
2019-01-21T14:29:47.233Z,97037.73
2019-01-21T14:32:02.938Z,97034.42
2019-01-21T14:33:58.264Z,97023.13
2019-01-21T14:36:24.455Z,97022.92
2019-01-21T14:38:38.673Z,97021.58
2019-01-21T14:40:46.651Z,97016.37
2019-01-21T14:43:08.429Z,97019.34
2019-01-21T14:45:25.812Z,97014.72
2019-01-21T14:48:05.483Z,97020.44
2019-01-21T14:50:18.832Z,97019.81
2019-01-21T14:52:32.882Z,97018.37
2019-01-21T14:54:45.911Z,97018.30
2019-01-21T14:56:57.269Z,97017.11
2019-01-21T14:59:08.494Z,97011.81
2019-01-21T15:01:06.127Z,97015.30
2019-01-21T15:03:13.086Z,97014.64
2019-01-21T15:05:28.442Z,97016.48
2019-01-21T15:07:47.375Z,97019.05
2019-01-21T15:10:19.669Z,97014.13
2019-01-21T15:12:19.554Z,97024.59
2019-01-21T15:14:31.874Z,97018.70
2019-01-21T15:16:57.063Z,97022.50
2019-01-21T15:19:10.231Z,97023.59
2019-01-21T15:21:12.618Z,97015.76
2019-01-21T15:23:09.633Z,97014.73
2019-01-21T15:25:45.415Z,97012.05
2019-01-21T15:28:21.260Z,97008.97
2019-01-21T15:30:35.118Z,97016.08
2019-01-21T15:32:45.302Z,97017.70
2019-01-21T15:35:20.510Z,97015.17
2019-01-21T15:37:33.433Z,97016.08
2019-01-21T15:39:58.289Z,97013.54
2019-01-21T15:41:51.794Z,97011.00
2019-01-21T15:44:18.056Z,97016.09
2019-01-21T15:46:11.864Z,97015.92
2019-01-21T15:48:24.694Z,97021.36
2019-01-21T15:50:47.839Z,97027.95
2019-01-21T15:52:57.368Z,97036.23
2019-01-21T15:55:24.571Z,97050.07
2019-01-21T15:57:30.384Z,97042.20
2019-01-21T15:59:23.937Z,97041.47
2019-01-21T16:01:55.891Z,97048.39
2019-01-21T16:04:30.635Z,97053.83
2019-01-21T16:06:56.063Z,97049.88
2019-01-21T16:09:02.160Z,97050.90
2019-01-21T16:11:19.709Z,97054.27
2019-01-21T16:13:29.553Z,97051.33
2019-01-21T16:15:58.459Z,97053.91
2019-01-21T16:18:27.443Z,97055.39
2019-01-21T16:20:28.129Z,97057.20
2019-01-21T16:22:33.162Z,97049.23
2019-01-21T16:24:42.219Z,97060.52
2019-01-21T16:26:51.321Z,97064.56
2019-01-21T16:29:08.476Z,97068.91
2019-01-21T16:31:06.148Z,97070.49
2019-01-21T16:33:48.151Z,97068.64
2019-01-21T16:35:41.947Z,97072.86
2019-01-21T16:37:53.275Z,97077.98
2019-01-21T16:40:01.864Z,97078.91
2019-01-21T16:42:21.470Z,97079.82
2019-01-21T16:44:09.122Z,97090.82
2019-01-21T16:45:49.308Z,97082.16
2019-01-21T16:47:26.548Z,97088.92
2019-01-21T16:49:12.442Z,97085.72
2019-01-21T16:50:48.719Z,97088.27
2019-01-21T16:52:29.762Z,97094.38
2019-01-21T16:54:12.749Z,97091.38
2019-01-21T16:55:53.526Z,97084.38
2019-01-21T16:57:29.861Z,97086.59
2019-01-21T16:59:05.631Z,97084.81
2019-01-21T17:00:46.185Z,97084.03
2019-01-21T17:02:29.984Z,97086.47
2019-01-21T17:04:13.149Z,97086.92
2019-01-21T17:06:02.239Z,97090.26
2019-01-21T17:07:51.222Z,97078.95
2019-01-21T17:09:37.527Z,97084.05
2019-01-21T17:11:24.210Z,97083.16
2019-01-21T17:13:20.919Z,97086.83
2019-01-21T17:15:00.769Z,97088.92
2019-01-21T17:16:46.553Z,97087.22
2019-01-21T17:18:27.923Z,97086.78
2019-01-21T17:20:19.041Z,97083.86
2019-01-21T17:22:14.455Z,97088.64
2019-01-21T17:23:56.426Z,97075.30
2019-01-21T17:25:37.550Z,97077.66
2019-01-21T17:27:26.391Z,97075.86
2019-01-21T17:29:15.629Z,97074.66
2019-01-21T17:30:54.854Z,97076.60
2019-01-21T17:32:35.760Z,97074.30
2019-01-21T17:34:24.540Z,97075.13
2019-01-21T17:36:12.586Z,97076.23
2019-01-21T17:37:59.742Z,97078.48
2019-01-21T17:39:57.254Z,97084.46
2019-01-21T17:41:53.944Z,97074.81
2019-01-21T17:43:38.818Z,97081.50
2019-01-21T17:45:34.307Z,97078.05
2019-01-21T17:47:18.470Z,97069.52
2019-01-21T17:49:03.131Z,97073.83
2019-01-21T17:50:52.010Z,97069.84
2019-01-21T17:52:42.295Z,97078.91
2019-01-21T17:54:35.197Z,97077.11
2019-01-21T17:56:16.902Z,97081.59
2019-01-21T17:58:07.356Z,97081.27
2019-01-21T17:59:53.767Z,97078.06
2019-01-21T18:01:39.444Z,97076.05
2019-01-21T18:03:29.978Z,97066.57
2019-01-21T18:05:08.356Z,97076.03
2019-01-21T18:06:58.457Z,97068.13
2019-01-21T18:08:45.524Z,97066.45
2019-01-21T18:10:29.071Z,97064.63
2019-01-21T18:12:09.130Z,97069.81
2019-01-21T18:13:47.740Z,97072.98
2019-01-21T18:15:24.282Z,97072.16
2019-01-21T18:17:00.538Z,97066.70
2019-01-21T18:18:47.275Z,97071.76
2019-01-21T18:22:36.273Z,97068.53
2019-01-21T18:24:21.894Z,97068.72
2019-01-21T18:29:00.007Z,97055.67
2019-01-21T18:30:59.449Z,97052.09
2019-01-21T18:32:35.397Z,97059.91
2019-01-21T18:34:23.938Z,97054.42
2019-01-21T18:36:13.224Z,97042.42
2019-01-21T18:37:58.540Z,97033.75
2019-01-21T18:39:35.800Z,97030.67
2019-01-21T18:41:17.300Z,97026.36
2019-01-21T18:43:01.259Z,97028.83
2019-01-21T18:44:38.450Z,97020.30
2019-01-21T18:46:22.004Z,97017.09
2019-01-21T18:48:06.560Z,97022.18
2019-01-21T18:49:46.218Z,97009.33
2019-01-21T18:51:24.403Z,97013.55
2019-01-21T18:53:08.806Z,96999.14
2019-01-21T18:54:44.856Z,97004.36
2019-01-21T18:56:45.836Z,96990.96
2019-01-21T18:58:24.449Z,96991.50
2019-01-21T19:00:05.204Z,96992.18
2019-01-21T19:01:44.246Z,96989.18
2019-01-21T19:03:20.430Z,96984.19
2019-01-21T19:04:59.482Z,96983.88
2019-01-21T19:06:34.923Z,96985.00
2019-01-21T19:08:22.177Z,96979.10
2019-01-21T19:10:06.299Z,96975.13
2019-01-21T19:11:48.114Z,96968.69
2019-01-21T19:13:41.295Z,96968.91
2019-01-21T19:15:25.249Z,96966.47
2019-01-21T19:17:01.296Z,96966.79
2019-01-21T19:18:41.462Z,96967.02
2019-01-21T19:20:24.831Z,96964.34
2019-01-21T19:22:06.989Z,96962.80
2019-01-21T19:23:50.379Z,96960.13
2019-01-21T19:25:27.789Z,96961.35
2019-01-21T19:27:11.651Z,96956.83
2019-01-21T19:28:50.314Z,96956.16
2019-01-21T19:30:37.881Z,96948.05
2019-01-21T19:32:15.992Z,96951.81
2019-01-21T19:33:55.463Z,96944.83
2019-01-21T19:35:36.996Z,96943.28
2019-01-21T19:37:17.208Z,96945.51
2019-01-21T19:38:55.825Z,96941.27
2019-01-21T19:40:35.494Z,96941.83
2019-01-21T19:42:11.154Z,96939.50
2019-01-21T19:43:50.254Z,96938.13
2019-01-21T19:45:35.101Z,96938.00
2019-01-21T19:47:10.579Z,96942.41
2019-01-21T19:48:50.807Z,96936.64
2019-01-21T19:50:29.388Z,96927.92
2019-01-21T19:52:06.520Z,96925.78
2019-01-21T19:53:42.047Z,96932.75
2019-01-21T19:55:24.300Z,96927.30
2019-01-21T19:57:21.263Z,96934.44
2019-01-21T19:59:03.126Z,96926.39
2019-01-21T20:00:41.253Z,96930.56
2019-01-21T20:02:20.032Z,96928.82
2019-01-21T20:03:55.796Z,96928.32
2019-01-21T20:05:31.433Z,96924.78
2019-01-21T20:07:16.138Z,96926.62
2019-01-21T20:09:19.051Z,96921.84
2019-01-21T20:10:59.251Z,96914.75
2019-01-21T20:12:45.691Z,96912.42
2019-01-21T20:14:26.394Z,96908.19
2019-01-21T20:16:07.297Z,96913.26
2019-01-21T20:17:44.657Z,96915.30
2019-01-21T20:19:25.459Z,96913.20
2019-01-21T20:21:05.545Z,96912.97
2019-01-21T20:22:41.047Z,96912.67
2019-01-21T20:24:16.986Z,96917.17
2019-01-21T20:25:57.886Z,96913.69
2019-01-21T20:27:33.592Z,96914.44
2019-01-21T20:29:13.845Z,96921.23
2019-01-21T20:30:57.388Z,96917.44
2019-01-21T20:32:35.899Z,96906.36
2019-01-21T20:34:16.052Z,96906.16
2019-01-21T20:35:56.492Z,96906.94
2019-01-21T20:37:34.033Z,96912.05
2019-01-21T20:39:14.446Z,96911.67
2019-01-21T20:40:57.156Z,96910.92
2019-01-21T20:42:37.944Z,96906.19
2019-01-21T20:44:19.092Z,96903.72
2019-01-21T20:46:04.291Z,96898.21
2019-01-21T20:47:42.860Z,96901.06
2019-01-21T20:49:20.309Z,96905.04
2019-01-21T20:51:04.463Z,96904.92
2019-01-21T20:52:40.499Z,96898.80
2019-01-21T20:54:18.630Z,96892.69
2019-01-21T20:55:55.889Z,96890.95
2019-01-21T20:57:34.774Z,96892.54
2019-01-21T20:59:12.617Z,96895.20
2019-01-21T21:00:58.161Z,96892.84
2019-01-21T21:02:34.726Z,96894.59
2019-01-21T21:04:42.450Z,96894.08
2019-01-21T21:06:21.520Z,96894.02
2019-01-21T21:08:19.787Z,96899.76
2019-01-21T21:10:02.525Z,96897.88
2019-01-21T21:11:42.731Z,96896.91
2019-01-21T21:13:20.264Z,96889.91
2019-01-21T21:15:03.470Z,96896.87
2019-01-21T21:16:41.722Z,96885.88
2019-01-21T21:18:25.121Z,96888.30
2019-01-21T21:20:07.829Z,96888.50
2019-01-21T21:21:52.506Z,96885.56
2019-01-21T21:23:31.153Z,96881.45
2019-01-21T21:25:13.088Z,96876.43
2019-01-21T21:26:56.260Z,96872.72
2019-01-21T21:28:35.017Z,96878.13
2019-01-21T21:30:35.407Z,96870.82
2019-01-21T21:32:12.335Z,96875.31
2019-01-21T21:33:51.650Z,96875.44
2019-01-21T21:35:32.858Z,96877.59
2019-01-21T21:37:09.767Z,96872.06
2019-01-21T21:38:50.020Z,96872.01
2019-01-21T21:40:27.822Z,96868.38
2019-01-21T21:42:09.416Z,96873.50
2019-01-21T21:43:52.190Z,96872.72
2019-01-21T21:45:29.062Z,96869.19
2019-01-21T21:47:05.616Z,96868.28
2019-01-21T21:48:45.263Z,96866.98
2019-01-21T21:50:33.527Z,96859.34
2019-01-21T21:52:12.987Z,96862.55
2019-01-21T21:53:50.592Z,96855.59
2019-01-21T21:55:39.401Z,96857.23
2019-01-21T21:57:40.267Z,96851.70
2019-01-21T21:59:11.147Z,96850.27
2019-01-21T22:00:50.422Z,96846.06
2019-01-21T22:02:27.241Z,96845.28
2019-01-21T22:04:07.453Z,96848.23
2019-01-21T22:05:49.775Z,96845.73
2019-01-21T22:07:32.613Z,96843.94
2019-01-21T22:09:09.769Z,96842.52
2019-01-21T22:10:50.848Z,96836.77
2019-01-21T22:12:32.474Z,96832.33
2019-01-21T22:14:09.887Z,96836.39
2019-01-21T22:15:50.720Z,96832.91
2019-01-21T22:17:30.533Z,96829.08
2019-01-21T22:19:08.211Z,96822.17
2019-01-21T22:20:52.812Z,96816.25
2019-01-21T22:22:34.750Z,96820.55
2019-01-21T22:24:08.732Z,96815.02
2019-01-21T22:25:49.548Z,96808.76
2019-01-21T22:27:29.802Z,96809.08
2019-01-21T22:29:12.828Z,96798.88
2019-01-21T22:31:04.328Z,96802.54
2019-01-21T22:32:48.734Z,96804.12
2019-01-21T22:34:26.689Z,96799.66
2019-01-21T22:36:03.830Z,96804.20
2019-01-21T22:37:42.324Z,96804.97
2019-01-21T22:39:19.974Z,96798.89
2019-01-21T22:40:57.570Z,96801.09
2019-01-21T22:42:35.719Z,96803.97
2019-01-21T22:44:11.698Z,96793.45
2019-01-21T22:45:47.159Z,96805.50
2019-01-21T22:47:22.764Z,96800.41
2019-01-21T22:49:00.601Z,96799.64
2019-01-21T22:50:36.642Z,96793.88
2019-01-21T22:52:13.254Z,96797.08
2019-01-21T22:53:49.340Z,96800.16
2019-01-21T22:55:30.160Z,96794.63
2019-01-21T22:57:05.279Z,96792.19
2019-01-21T22:58:44.720Z,96801.16
2019-01-21T23:00:54.360Z,96800.80
2019-01-21T23:04:30.295Z,96796.27
2019-01-21T23:06:11.868Z,96793.38
2019-01-21T23:07:50.379Z,96794.03
2019-01-21T23:09:34.150Z,96790.38
2019-01-21T23:11:13.843Z,96788.17
2019-01-21T23:12:51.560Z,96788.72
2019-01-21T23:14:30.431Z,96789.95